createdAt,value
2023-01-18T00:01:16.352Z,28.87
2023-01-18T00:03:43.563Z,30.27
2023-01-18T00:06:11.558Z,29.50
2023-01-18T00:08:40.260Z,30.70
2023-01-18T00:11:17.214Z,30.17
2023-01-18T00:13:44.970Z,30.77
2023-01-18T00:16:15.825Z,29.70
2023-01-18T00:18:43.985Z,28.60
2023-01-18T00:21:12.367Z,30.17
2023-01-18T00:23:39.799Z,30.00
2023-01-18T00:26:10.293Z,29.03
2023-01-18T00:28:38.843Z,29.50
2023-01-18T00:31:21.079Z,29.10
2023-01-18T00:33:50.298Z,28.70
2023-01-18T00:36:18.533Z,29.70
2023-01-18T00:38:51.827Z,30.00
2023-01-18T00:41:20.196Z,28.37
2023-01-18T00:43:47.825Z,28.43
2023-01-18T00:46:25.347Z,26.90
2023-01-18T00:48:54.876Z,28.30
2023-01-18T00:51:25.264Z,26.77
2023-01-18T00:53:52.596Z,25.73
2023-01-18T00:56:22.902Z,27.07
2023-01-18T00:58:50.279Z,25.73
2023-01-18T01:01:17.772Z,24.40
2023-01-18T01:04:03.563Z,25.70
2023-01-18T01:06:45.072Z,24.23
2023-01-18T01:09:16.339Z,26.27
2023-01-18T01:12:02.724Z,24.97
2023-01-18T01:14:49.234Z,25.63
2023-01-18T01:17:35.124Z,24.07
2023-01-18T01:20:20.984Z,24.07
2023-01-18T01:23:06.957Z,24.73
2023-01-18T01:25:55.485Z,25.97
2023-01-18T01:28:22.816Z,26.23
2023-01-18T01:30:50.127Z,26.67
2023-01-18T01:33:18.505Z,24.13
2023-01-18T01:35:45.685Z,25.30
2023-01-18T01:38:12.731Z,25.40
2023-01-18T01:40:39.824Z,24.33
2023-01-18T01:43:13.423Z,24.13
2023-01-18T01:45:40.811Z,24.10
2023-01-18T01:48:09.876Z,24.77
2023-01-18T01:50:40.078Z,28.00
2023-01-18T01:53:08.868Z,29.67
2023-01-18T01:55:39.456Z,30.17
2023-01-18T01:58:20.261Z,30.30
2023-01-18T02:00:47.457Z,30.90
2023-01-18T02:03:20.088Z,31.30
2023-01-18T02:05:57.315Z,29.87
2023-01-18T02:08:25.887Z,28.97
2023-01-18T02:10:53.161Z,29.63
2023-01-18T02:13:22.935Z,29.17
2023-01-18T02:16:00.688Z,28.90
2023-01-18T02:18:59.695Z,27.97
2023-01-18T02:21:45.827Z,28.90
2023-01-18T02:24:40.384Z,26.63
2023-01-18T02:27:43.833Z,26.73
2023-01-18T02:30:36.376Z,26.90
2023-01-18T02:33:19.245Z,25.07
2023-01-18T02:35:56.551Z,26.80
2023-01-18T02:38:38.057Z,25.43
2023-01-18T02:42:06.976Z,25.07
2023-01-18T02:45:04.088Z,24.03
2023-01-18T02:47:32.607Z,22.33
2023-01-18T02:49:59.914Z,22.47
2023-01-18T02:52:47.411Z,22.63
2023-01-18T02:55:46.536Z,23.73
2023-01-18T02:58:36.228Z,23.57
2023-01-18T03:01:46.943Z,23.97
2023-01-18T03:04:22.091Z,19.40
2023-01-18T03:06:59.990Z,20.67
2023-01-18T03:09:27.797Z,20.60
2023-01-18T03:12:46.260Z,20.37
2023-01-18T03:15:29.098Z,19.73
2023-01-18T03:18:01.024Z,18.07
2023-01-18T03:20:33.252Z,19.17
2023-01-18T03:23:41.346Z,17.50
2023-01-18T03:26:16.912Z,18.70
2023-01-18T03:29:12.398Z,18.93
2023-01-18T03:32:12.442Z,19.87
2023-01-18T03:35:00.234Z,18.67
2023-01-18T03:37:33.847Z,18.57
2023-01-18T03:40:18.488Z,18.37
2023-01-18T03:43:01.746Z,23.70
2023-01-18T03:45:43.772Z,23.97
2023-01-18T03:48:11.811Z,25.80
2023-01-18T03:51:15.908Z,25.07
2023-01-18T03:54:15.364Z,23.20
2023-01-18T03:57:06.426Z,22.80
2023-01-18T03:59:37.687Z,21.50
2023-01-18T04:02:09.289Z,19.03
2023-01-18T04:04:36.538Z,19.03
2023-01-18T04:07:04.336Z,19.50
2023-01-18T04:09:31.536Z,20.20
2023-01-18T04:11:58.810Z,19.00
2023-01-18T04:14:26.061Z,19.57
2023-01-18T04:16:53.191Z,20.83
2023-01-18T04:19:20.241Z,19.80
2023-01-18T04:21:47.270Z,19.73
2023-01-18T04:24:14.645Z,18.87
2023-01-18T04:26:41.687Z,20.73
2023-01-18T04:29:09.224Z,19.63
2023-01-18T04:31:36.429Z,21.37
2023-01-18T04:34:03.628Z,21.40
2023-01-18T04:36:30.837Z,20.57
2023-01-18T04:38:58.180Z,22.60
2023-01-18T04:41:25.803Z,21.33
2023-01-18T04:43:52.908Z,22.87
2023-01-18T04:46:20.044Z,21.53
2023-01-18T04:48:51.722Z,20.43
2023-01-18T04:51:20.125Z,21.87
2023-01-18T04:53:48.033Z,19.77
2023-01-18T04:56:15.538Z,20.70
2023-01-18T04:58:43.166Z,20.10
2023-01-18T05:01:14.456Z,19.43
2023-01-18T05:03:41.830Z,20.83
2023-01-18T05:06:11.875Z,20.73
2023-01-18T05:08:41.167Z,19.53
2023-01-18T05:11:14.501Z,20.00
2023-01-18T05:13:42.299Z,21.23
2023-01-18T05:16:19.018Z,19.43
2023-01-18T05:18:46.511Z,21.83
2023-01-18T05:21:14.807Z,20.00
2023-01-18T05:23:42.212Z,18.97
2023-01-18T05:26:18.529Z,19.13
2023-01-18T05:28:45.892Z,21.47
2023-01-18T05:31:14.933Z,20.30
2023-01-18T05:33:42.474Z,19.13
2023-01-18T05:36:09.915Z,20.23
2023-01-18T05:38:36.989Z,18.87
2023-01-18T05:41:04.151Z,20.63
2023-01-18T05:43:31.781Z,21.73
2023-01-18T05:45:59.697Z,20.60
2023-01-18T05:48:27.387Z,19.90
2023-01-18T05:50:54.485Z,20.10
2023-01-18T05:53:22.977Z,20.57
2023-01-18T05:55:58.499Z,19.77
2023-01-18T05:58:27.503Z,19.27
2023-01-18T06:00:55.674Z,19.60
2023-01-18T06:03:25.262Z,20.57
2023-01-18T06:05:52.914Z,18.93
2023-01-18T06:08:20.904Z,18.73
2023-01-18T06:10:59.376Z,19.07
2023-01-18T06:13:29.618Z,16.83
2023-01-18T06:15:58.447Z,18.77
2023-01-18T06:18:28.133Z,16.07
2023-01-18T06:20:59.113Z,16.83
2023-01-18T06:23:28.266Z,16.60
2023-01-18T06:25:55.354Z,16.27
2023-01-18T06:28:22.748Z,14.93
2023-01-18T06:30:53.685Z,14.90
2023-01-18T06:33:21.455Z,14.77
2023-01-18T06:35:48.769Z,13.13
2023-01-18T06:38:15.921Z,14.07
2023-01-18T06:40:42.960Z,13.80
2023-01-18T06:43:10.440Z,14.20
2023-01-18T06:45:37.540Z,13.23
2023-01-18T06:48:04.785Z,12.13
2023-01-18T06:50:32.179Z,10.87
2023-01-18T06:52:59.708Z,11.57
2023-01-18T06:55:27.065Z,12.13
2023-01-18T06:57:55.119Z,11.00
2023-01-18T07:00:23.661Z,11.80
2023-01-18T07:02:53.037Z,11.40
2023-01-18T07:05:20.188Z,10.87
2023-01-18T07:07:47.435Z,12.20
2023-01-18T07:10:16.805Z,11.07
2023-01-18T07:12:48.599Z,10.17
2023-01-18T07:15:21.916Z,10.87
2023-01-18T07:17:50.638Z,11.23
2023-01-18T07:20:18.525Z,10.37
2023-01-18T07:22:45.752Z,10.60
2023-01-18T07:25:13.581Z,10.77
2023-01-18T07:27:44.552Z,9.87
2023-01-18T07:30:12.495Z,9.60
2023-01-18T07:32:40.747Z,8.97
2023-01-18T07:35:08.214Z,8.80
2023-01-18T07:37:36.079Z,8.87
2023-01-18T07:40:03.719Z,8.60
2023-01-18T07:42:30.731Z,9.50
2023-01-18T07:44:57.756Z,8.87
2023-01-18T07:47:24.804Z,9.10
2023-01-18T07:49:51.833Z,8.67
2023-01-18T07:52:19.864Z,8.63
2023-01-18T07:54:46.945Z,8.33
2023-01-18T07:57:13.948Z,8.47
2023-01-18T07:59:41.030Z,8.27
2023-01-18T08:02:12.703Z,7.63
2023-01-18T08:04:40.594Z,7.87
2023-01-18T08:07:09.199Z,8.10
2023-01-18T08:09:36.361Z,7.27
2023-01-18T08:12:03.685Z,8.17
2023-01-18T08:14:30.806Z,7.63
2023-01-18T08:16:57.871Z,7.23
2023-01-18T08:19:25.212Z,7.20
2023-01-18T08:21:52.253Z,7.23
2023-01-18T08:24:19.327Z,5.83
2023-01-18T08:26:46.409Z,7.57
2023-01-18T08:29:14.039Z,7.80
2023-01-18T08:31:41.072Z,7.97
2023-01-18T08:34:08.208Z,7.77
2023-01-18T08:36:35.230Z,6.73
2023-01-18T08:39:02.318Z,6.83
2023-01-18T08:41:30.545Z,7.33
2023-01-18T08:43:59.351Z,6.93
2023-01-18T08:46:26.775Z,6.33
2023-01-18T08:48:59.451Z,7.80
2023-01-18T08:51:26.591Z,6.33
2023-01-18T08:53:57.495Z,5.77
2023-01-18T08:56:25.259Z,7.40
2023-01-18T08:58:52.478Z,6.23
2023-01-18T09:01:19.777Z,5.73
2023-01-18T09:03:48.805Z,5.63
2023-01-18T09:06:16.935Z,5.20
2023-01-18T09:08:46.465Z,5.37
2023-01-18T09:11:13.512Z,5.60
2023-01-18T09:13:58.475Z,5.57
2023-01-18T09:16:26.847Z,4.53
2023-01-18T09:18:56.322Z,4.50
2023-01-18T09:21:24.275Z,4.30
2023-01-18T09:23:51.366Z,4.30
2023-01-18T09:26:20.857Z,4.87
2023-01-18T09:28:53.301Z,4.27
2023-01-18T09:31:24.192Z,4.53
2023-01-18T09:33:53.882Z,3.97
2023-01-18T09:36:26.280Z,4.00
2023-01-18T09:38:55.131Z,4.57
2023-01-18T09:41:30.758Z,4.47
2023-01-18T09:44:20.402Z,4.10
2023-01-18T09:46:54.503Z,4.13
2023-01-18T09:49:55.450Z,4.60
2023-01-18T09:53:12.488Z,4.60
2023-01-18T09:55:47.650Z,4.67
2023-01-18T09:59:06.845Z,4.47
2023-01-18T10:01:36.316Z,4.17
2023-01-18T10:04:27.027Z,4.23
2023-01-18T10:07:02.647Z,3.90
2023-01-18T10:09:54.328Z,4.00
2023-01-18T10:12:36.603Z,4.20
2023-01-18T10:15:31.964Z,4.43
2023-01-18T10:18:00.953Z,3.57
2023-01-18T10:21:02.212Z,3.60
2023-01-18T10:23:44.680Z,3.80
2023-01-18T10:26:30.732Z,4.10
2023-01-18T10:29:26.546Z,4.13
2023-01-18T10:32:08.308Z,4.40
2023-01-18T10:34:39.377Z,4.27
2023-01-18T10:37:14.880Z,3.73
2023-01-18T10:39:57.537Z,3.63
2023-01-18T10:42:49.712Z,4.47
2023-01-18T10:45:26.782Z,3.60
2023-01-18T10:47:56.386Z,3.77
2023-01-18T10:50:38.236Z,4.00
2023-01-18T10:53:23.863Z,3.90
2023-01-18T10:56:17.038Z,4.23
2023-01-18T10:58:55.839Z,3.90
2023-01-18T11:01:30.142Z,3.37
2023-01-18T11:04:24.780Z,3.87
2023-01-18T11:07:04.008Z,3.60
2023-01-18T11:09:59.404Z,3.20
2023-01-18T11:12:48.055Z,4.00
2023-01-18T11:15:15.089Z,3.73
2023-01-18T11:18:00.486Z,3.80
2023-01-18T11:20:51.682Z,3.80
2023-01-18T11:23:37.823Z,3.40
2023-01-18T11:26:24.087Z,3.37
2023-01-18T11:28:58.218Z,3.47
2023-01-18T11:31:29.690Z,3.60
2023-01-18T11:34:01.718Z,4.03
2023-01-18T11:36:46.982Z,3.73
2023-01-18T11:39:23.060Z,4.37
2023-01-18T11:41:51.244Z,3.63
2023-01-18T11:44:27.280Z,3.30
2023-01-18T11:46:59.051Z,3.70
2023-01-18T11:50:28.605Z,3.97
2023-01-18T11:53:27.496Z,3.43
2023-01-18T11:56:09.925Z,3.57
2023-01-18T11:58:37.539Z,3.57
2023-01-18T12:01:07.501Z,4.03
2023-01-18T12:04:14.311Z,3.67
2023-01-18T12:06:56.119Z,3.27
2023-01-18T12:09:52.925Z,3.30
2023-01-18T12:13:02.319Z,3.13
2023-01-18T12:16:03.822Z,3.43
2023-01-18T12:18:57.456Z,3.37
2023-01-18T12:22:12.078Z,3.03
2023-01-18T12:25:48.003Z,3.33
2023-01-18T12:28:47.214Z,3.30
2023-01-18T12:31:38.876Z,3.30
2023-01-18T12:34:23.574Z,2.83
2023-01-18T12:37:23.780Z,3.50
2023-01-18T12:40:06.526Z,2.67
2023-01-18T12:43:10.223Z,3.17
2023-01-18T12:45:52.984Z,2.90
2023-01-18T12:48:30.407Z,2.87
2023-01-18T12:51:00.496Z,3.10
2023-01-18T12:54:03.869Z,2.90
2023-01-18T12:56:40.407Z,3.43
2023-01-18T12:59:32.557Z,3.97
2023-01-18T13:02:30.020Z,3.57
2023-01-18T13:05:13.039Z,3.07
2023-01-18T13:07:45.400Z,3.20
2023-01-18T13:10:28.915Z,3.07
2023-01-18T13:12:57.828Z,3.50
2023-01-18T13:15:38.531Z,3.07
2023-01-18T13:18:29.169Z,3.23
2023-01-18T13:21:43.038Z,3.17
2023-01-18T13:24:30.975Z,2.80
2023-01-18T13:27:14.635Z,2.80
2023-01-18T13:29:43.972Z,3.13
2023-01-18T13:32:34.627Z,3.00
2023-01-18T13:35:25.991Z,3.63
2023-01-18T13:37:58.212Z,3.57
2023-01-18T13:40:34.723Z,3.07
2023-01-18T13:43:02.533Z,3.07
2023-01-18T13:45:31.150Z,3.13
2023-01-18T13:48:05.677Z,3.30
2023-01-18T13:50:34.597Z,4.00
2023-01-18T13:53:14.057Z,4.00
2023-01-18T13:56:25.831Z,3.97
2023-01-18T13:59:13.348Z,4.03
2023-01-18T14:01:44.889Z,3.33
2023-01-18T14:04:30.951Z,3.73
2023-01-18T14:07:03.097Z,4.30
2023-01-18T14:09:47.924Z,3.70
2023-01-18T14:12:15.856Z,3.37
2023-01-18T14:14:59.481Z,3.57
2023-01-18T14:17:27.377Z,3.70
2023-01-18T14:20:21.583Z,3.67
2023-01-18T14:23:29.775Z,3.80
2023-01-18T14:26:11.549Z,4.20
2023-01-18T14:28:45.654Z,4.30
2023-01-18T14:31:23.950Z,4.27
2023-01-18T14:33:51.174Z,4.70
2023-01-18T14:36:26.486Z,4.13
2023-01-18T14:39:17.103Z,5.50
2023-01-18T14:42:05.235Z,5.30
2023-01-18T14:44:58.389Z,4.30
2023-01-18T14:47:31.237Z,4.63
2023-01-18T14:49:59.114Z,4.93
2023-01-18T14:52:34.091Z,5.47
2023-01-18T14:55:01.223Z,4.87
2023-01-18T14:57:28.269Z,4.90
2023-01-18T15:00:17.135Z,4.93
2023-01-18T15:02:44.588Z,3.93
2023-01-18T15:05:19.869Z,4.10
2023-01-18T15:07:54.141Z,4.20
2023-01-18T15:10:22.699Z,4.60
2023-01-18T15:12:58.155Z,4.87
2023-01-18T15:15:42.317Z,4.20
2023-01-18T15:18:19.559Z,3.90
2023-01-18T15:21:06.304Z,4.57
2023-01-18T15:23:36.670Z,3.40
2023-01-18T15:26:04.024Z,4.30
2023-01-18T15:28:34.035Z,4.70
2023-01-18T15:31:12.364Z,4.37
2023-01-18T15:33:40.063Z,3.90
2023-01-18T15:36:09.825Z,4.73
2023-01-18T15:38:37.456Z,3.77
2023-01-18T15:41:12.578Z,4.43
2023-01-18T15:43:44.871Z,4.40
2023-01-18T15:46:16.159Z,3.77
2023-01-18T15:48:55.594Z,4.20
2023-01-18T15:51:42.895Z,4.43
2023-01-18T15:54:27.445Z,4.90
2023-01-18T15:57:09.656Z,4.90
2023-01-18T15:59:37.027Z,4.80
2023-01-18T16:02:09.972Z,4.77
2023-01-18T16:04:37.459Z,5.80
2023-01-18T16:07:35.133Z,5.70
2023-01-18T16:10:28.113Z,6.07
2023-01-18T16:13:26.257Z,5.23
2023-01-18T16:16:20.711Z,5.80
2023-01-18T16:19:02.854Z,6.47
2023-01-18T16:21:50.115Z,5.23
2023-01-18T16:24:27.509Z,6.07
2023-01-18T16:26:56.829Z,5.67
2023-01-18T16:29:24.246Z,6.23
2023-01-18T16:31:51.275Z,6.83
2023-01-18T16:34:23.929Z,6.53
2023-01-18T16:36:53.207Z,7.43
2023-01-18T16:39:21.538Z,7.47
2023-01-18T16:41:56.375Z,7.57
2023-01-18T16:44:23.421Z,8.60
2023-01-18T16:46:50.543Z,8.53
2023-01-18T16:49:17.637Z,9.07
2023-01-18T16:51:44.722Z,10.40
2023-01-18T16:54:11.814Z,10.57
2023-01-18T16:56:39.813Z,10.00
2023-01-18T16:59:21.906Z,11.10
2023-01-18T17:01:49.915Z,11.73
2023-01-18T17:04:18.478Z,12.27
2023-01-18T17:06:45.496Z,12.67
2023-01-18T17:09:26.184Z,12.63
2023-01-18T17:11:53.892Z,13.43
2023-01-18T17:14:21.811Z,14.30
2023-01-18T17:16:49.641Z,13.70
2023-01-18T17:19:20.374Z,13.57
2023-01-18T17:21:49.369Z,13.80
2023-01-18T17:24:20.522Z,14.83
2023-01-18T17:26:48.128Z,14.43
2023-01-18T17:29:18.065Z,14.43
2023-01-18T17:31:52.375Z,15.10
2023-01-18T17:34:30.014Z,13.57
2023-01-18T17:36:58.856Z,13.83
2023-01-18T17:39:42.643Z,14.50
2023-01-18T17:42:22.325Z,14.70
2023-01-18T17:44:50.748Z,14.83
2023-01-18T17:47:17.918Z,14.93
2023-01-18T17:49:44.955Z,15.13
2023-01-18T17:52:12.012Z,15.33
2023-01-18T17:54:39.019Z,15.40
2023-01-18T17:57:06.071Z,14.53
2023-01-18T17:59:33.165Z,16.07
2023-01-18T18:02:00.243Z,16.30
2023-01-18T18:04:27.273Z,15.83
2023-01-18T18:06:58.490Z,15.43
2023-01-18T18:09:25.956Z,15.70
2023-01-18T18:11:53.068Z,16.70
2023-01-18T18:14:20.228Z,15.83
2023-01-18T18:16:47.487Z,18.17
2023-01-18T18:19:14.867Z,17.33
2023-01-18T18:21:43.197Z,16.60
2023-01-18T18:24:10.226Z,16.27
2023-01-18T18:26:37.552Z,16.60
2023-01-18T18:29:05.213Z,17.87
2023-01-18T18:31:32.225Z,15.67
2023-01-18T18:33:59.279Z,17.93
2023-01-18T18:36:27.471Z,17.43
2023-01-18T18:38:54.718Z,17.00
2023-01-18T18:41:21.773Z,17.20
2023-01-18T18:43:48.801Z,17.57
2023-01-18T18:46:15.904Z,17.93
2023-01-18T18:48:43.052Z,19.43
2023-01-18T18:51:10.356Z,18.97
2023-01-18T18:53:39.342Z,18.37
2023-01-18T18:56:10.308Z,19.07
2023-01-18T18:58:39.169Z,19.27
2023-01-18T19:01:07.374Z,19.73
2023-01-18T19:03:36.058Z,20.67
2023-01-18T19:06:03.235Z,20.77
2023-01-18T19:08:31.085Z,20.13
2023-01-18T19:10:58.324Z,21.67
2023-01-18T19:13:25.424Z,21.83
2023-01-18T19:15:52.873Z,21.47
2023-01-18T19:18:20.001Z,23.80
2023-01-18T19:20:49.763Z,23.20
2023-01-18T19:23:17.237Z,22.37
2023-01-18T19:25:44.561Z,22.97
2023-01-18T19:28:11.641Z,23.83
2023-01-18T19:30:41.470Z,24.73
2023-01-18T19:33:09.383Z,25.90
2023-01-18T19:35:43.885Z,24.23
2023-01-18T19:38:11.174Z,26.13
2023-01-18T19:40:38.929Z,25.33
2023-01-18T19:43:06.296Z,24.77
2023-01-18T19:45:33.856Z,26.33
2023-01-18T19:48:01.882Z,25.40
2023-01-18T19:50:30.968Z,25.43
2023-01-18T19:52:58.797Z,25.10
2023-01-18T19:55:26.029Z,27.27
2023-01-18T19:57:57.892Z,26.60
2023-01-18T20:00:25.892Z,26.77
2023-01-18T20:02:53.650Z,25.83
2023-01-18T20:05:20.923Z,26.83
2023-01-18T20:07:48.113Z,27.20
2023-01-18T20:10:20.143Z,24.97
2023-01-18T20:12:49.444Z,25.23
2023-01-18T20:15:18.939Z,22.87
2023-01-18T20:17:46.636Z,23.63
2023-01-18T20:20:20.942Z,23.80
2023-01-18T20:22:54.550Z,22.40
2023-01-18T20:25:21.725Z,22.63
2023-01-18T20:27:48.889Z,22.80
2023-01-18T20:30:16.040Z,23.67
2023-01-18T20:32:43.217Z,22.80
2023-01-18T20:35:10.642Z,22.20
2023-01-18T20:37:37.867Z,23.33
2023-01-18T20:40:05.586Z,22.40
2023-01-18T20:42:32.596Z,22.33
2023-01-18T20:45:00.643Z,21.37
2023-01-18T20:47:28.449Z,22.97
2023-01-18T20:49:56.409Z,22.20
2023-01-18T20:52:23.503Z,21.83
2023-01-18T20:54:50.567Z,22.50
2023-01-18T20:57:18.826Z,21.00
2023-01-18T20:59:46.351Z,22.77
2023-01-18T21:02:13.687Z,21.23
2023-01-18T21:04:40.837Z,21.50
2023-01-18T21:07:08.151Z,20.27
2023-01-18T21:09:35.320Z,21.57
2023-01-18T21:12:02.474Z,20.30
2023-01-18T21:14:29.633Z,21.93
2023-01-18T21:16:56.700Z,20.77
2023-01-18T21:19:24.037Z,22.93
2023-01-18T21:21:51.158Z,24.07
2023-01-18T21:24:18.226Z,22.40
2023-01-18T21:26:45.389Z,21.03
2023-01-18T21:29:12.569Z,23.43
2023-01-18T21:31:41.031Z,24.03
2023-01-18T21:34:08.212Z,21.63
2023-01-18T21:36:35.325Z,22.00
2023-01-18T21:39:02.456Z,22.10
2023-01-18T21:41:48.319Z,20.93
2023-01-18T21:44:33.982Z,20.57
2023-01-18T21:47:01.917Z,21.63
2023-01-18T21:50:15.454Z,19.83
2023-01-18T21:52:53.556Z,19.53
2023-01-18T21:55:21.103Z,18.63
2023-01-18T21:58:10.735Z,19.80
2023-01-18T22:00:39.897Z,19.67
2023-01-18T22:03:07.328Z,18.93
2023-01-18T22:05:34.526Z,20.63
2023-01-18T22:08:02.005Z,19.43
2023-01-18T22:10:29.317Z,19.50
2023-01-18T22:12:56.454Z,19.17
2023-01-18T22:15:23.596Z,21.30
2023-01-18T22:17:50.750Z,21.20
2023-01-18T22:20:18.531Z,22.27
2023-01-18T22:22:46.684Z,20.50
2023-01-18T22:25:13.912Z,21.77
2023-01-18T22:27:41.005Z,21.07
2023-01-18T22:30:09.245Z,21.30
2023-01-18T22:32:36.304Z,22.43
2023-01-18T22:35:03.421Z,22.00
2023-01-18T22:37:31.308Z,22.50
2023-01-18T22:39:58.358Z,21.33
2023-01-18T22:42:25.963Z,22.07
2023-01-18T22:44:53.024Z,22.50
2023-01-18T22:47:20.084Z,22.10
2023-01-18T22:49:47.632Z,23.17
2023-01-18T22:52:14.777Z,22.10
2023-01-18T22:54:42.574Z,23.90
2023-01-18T22:57:09.946Z,22.93
2023-01-18T22:59:37.450Z,22.50
2023-01-18T23:02:04.954Z,22.17
2023-01-18T23:04:34.423Z,22.47
2023-01-18T23:07:01.621Z,21.63
2023-01-18T23:09:29.391Z,20.93
2023-01-18T23:11:56.726Z,22.27
2023-01-18T23:14:42.598Z,23.60
2023-01-18T23:17:30.921Z,22.33
2023-01-18T23:19:58.167Z,22.60
2023-01-18T23:22:25.332Z,23.03
2023-01-18T23:24:52.512Z,22.00
2023-01-18T23:27:19.784Z,22.77
2023-01-18T23:29:51.537Z,23.60
2023-01-18T23:32:18.682Z,23.10
2023-01-18T23:34:48.005Z,22.03
2023-01-18T23:37:15.111Z,23.37
2023-01-18T23:40:00.903Z,23.73
2023-01-18T23:42:46.439Z,24.47
2023-01-18T23:45:32.227Z,24.17
2023-01-18T23:48:25.798Z,23.87
2023-01-18T23:51:11.279Z,24.70
2023-01-18T23:53:57.244Z,22.63
2023-01-18T23:56:24.404Z,22.47
2023-01-18T23:58:51.556Z,24.07
